Terminal Aerodrome Forecast
Issued by NWS

Home | Current Version | Previous Version | Text Only | Print | Product List | Glossary On
Versions: 1 2 3 4 5 6 7 8 9 10 11 12 13 14 15 16 17 18 19
000
FTUS43 KICT 221137
TAFHUT
TAF
KHUT 221137Z 2212/2312 03007KT 6SM BR OVC005
     FM221600 08005KT P6SM OVC008
     FM222200 14013KT P6SM BKN015
     FM230300 15007KT 4SM BR BKN008=

USA.gov is the U.S. government's official web portal to all federal, state and local government web resources and services.